Time;durP1;ratioP1;P1;durP2;ratioP2;P2;SDS_P1;SDS_P2;PMS_P1;PMS_P2;Temp;Humidity;BMP_temperature;BMP_pressure;BME280_temperature;BME280_humidity;BME280_pressure;Samples;Min_cycle;Max_cycle;Signal;HPM_P1;HPM_P2
2021/08/14 00:00:54;;;;;;;6.70;4.50;;;16.70;99.90;;;;;;5033771;28;20162;-70
2021/08/14 00:03:20;;;;;;;7.17;5.37;;;16.60;99.90;;;;;;5033447;28;20688;-70
2021/08/14 00:05:45;;;;;;;12.83;5.63;;;16.60;99.90;;;;;;5033827;28;20168;-70
2021/08/14 00:08:11;;;;;;;8.00;5.77;;;16.60;99.90;;;;;;5033779;28;20248;-70
2021/08/14 00:10:37;;;;;;;7.20;5.23;;;16.60;99.90;;;;;;5033683;28;20172;-70
2021/08/14 00:13:02;;;;;;;5.23;4.73;;;16.60;99.90;;;;;;5033623;28;20247;-70
2021/08/14 00:15:28;;;;;;;5.60;4.40;;;16.50;99.90;;;;;;5032889;28;20623;-70
2021/08/14 00:17:53;;;;;;;6.00;4.60;;;16.50;99.90;;;;;;5033164;28;20181;-70
2021/08/14 00:20:19;;;;;;;9.63;6.40;;;16.50;99.90;;;;;;5033204;28;20201;-70
2021/08/14 00:22:44;;;;;;;10.07;6.00;;;16.50;99.90;;;;;;5033523;28;20161;-70
2021/08/14 00:25:10;;;;;;;10.17;6.40;;;16.50;99.90;;;;;;5033507;28;20161;-70
2021/08/14 00:27:36;;;;;;;8.70;5.73;;;16.40;99.90;;;;;;5033358;28;20586;-70
2021/08/14 00:30:02;;;;;;;8.70;6.00;;;16.40;99.90;;;;;;5033291;28;20457;-70
2021/08/14 00:32:28;;;;;;;7.10;5.00;;;16.40;99.90;;;;;;5032976;28;20674;-70
2021/08/14 00:34:53;;;;;;;7.40;5.70;;;16.40;99.90;;;;;;5032940;28;20404;-70
2021/08/14 00:37:19;;;;;;;7.77;5.33;;;16.30;99.90;;;;;;5032920;28;20178;-70
2021/08/14 00:39:44;;;;;;;5.87;5.00;;;16.30;99.90;;;;;;5033352;28;20150;-70
2021/08/14 00:42:10;;;;;;;9.50;5.67;;;16.30;99.90;;;;;;5032957;28;20163;-70
2021/08/14 00:44:36;;;;;;;8.30;5.70;;;16.30;99.90;;;;;;5033068;28;20251;-70
2021/08/14 00:47:04;;;;;;;9.50;5.63;;;16.20;99.90;;;;;;5032958;28;20185;-70
2021/08/14 00:49:30;;;;;;;7.80;5.53;;;16.20;99.90;;;;;;5032961;28;20687;-70
2021/08/14 00:51:55;;;;;;;8.27;5.47;;;16.20;99.90;;;;;;5033714;28;20583;-70
2021/08/14 00:54:21;;;;;;;9.43;5.87;;;16.20;99.90;;;;;;5032685;28;20170;-70
2021/08/14 00:56:47;;;;;;;7.30;4.70;;;16.20;99.90;;;;;;5032790;28;20160;-70
2021/08/14 00:59:13;;;;;;;7.60;5.73;;;16.20;99.90;;;;;;5032985;28;20181;-70
2021/08/14 01:01:38;;;;;;;9.50;4.73;;;16.20;99.90;;;;;;5032618;28;20411;-70
2021/08/14 01:04:04;;;;;;;8.53;5.50;;;16.10;99.90;;;;;;5032824;28;20158;-70
2021/08/14 01:06:30;;;;;;;8.37;5.60;;;16.10;99.90;;;;;;5032739;28;20704;-70
2021/08/14 01:08:57;;;;;;;9.27;5.30;;;16.10;99.90;;;;;;5032698;28;20396;-70
2021/08/14 01:11:23;;;;;;;6.00;4.87;;;16.10;99.90;;;;;;5032199;28;20415;-70
2021/08/14 01:13:49;;;;;;;10.17;5.40;;;16.00;99.90;;;;;;5032642;28;20388;-70
2021/08/14 01:16:15;;;;;;;8.57;5.40;;;16.10;99.90;;;;;;5032505;28;20511;-70
2021/08/14 01:18:47;;;;;;;7.77;5.00;;;16.10;99.90;;;;;;5014958;28;20189;-70
2021/08/14 01:21:18;;;;;;;9.20;5.97;;;16.00;99.90;;;;;;5012799;28;20166;-70
2021/08/14 01:23:45;;;;;;;6.83;5.30;;;16.00;99.90;;;;;;5012833;28;20401;-70
2021/08/14 01:26:13;;;;;;;8.43;5.30;;;16.00;99.90;;;;;;5012918;28;20397;-70
2021/08/14 01:28:38;;;;;;;7.67;5.40;;;16.00;99.90;;;;;;5032124;28;20408;-70
2021/08/14 01:31:06;;;;;;;9.47;5.57;;;15.90;99.90;;;;;;5032149;28;20970;-70
2021/08/14 01:33:33;;;;;;;7.80;5.80;;;15.90;99.90;;;;;;5032363;28;20196;-70
2021/08/14 01:35:59;;;;;;;9.17;6.63;;;15.90;99.90;;;;;;5032259;28;20470;-70
2021/08/14 01:38:25;;;;;;;9.67;6.13;;;15.90;99.90;;;;;;5032445;28;20385;-70
2021/08/14 01:40:50;;;;;;;9.70;5.50;;;15.90;99.90;;;;;;5032208;28;20388;-70
2021/08/14 01:43:16;;;;;;;7.53;5.70;;;15.90;99.90;;;;;;5032024;28;20177;-70
2021/08/14 01:45:42;;;;;;;8.70;5.77;;;15.80;99.90;;;;;;5032014;28;20181;-70
2021/08/14 01:48:07;;;;;;;8.97;5.17;;;15.80;99.90;;;;;;5032097;28;20173;-70
2021/08/14 01:50:33;;;;;;;6.10;5.33;;;15.80;99.90;;;;;;5032187;28;20647;-70
2021/08/14 01:52:58;;;;;;;8.90;5.93;;;15.70;99.90;;;;;;5032200;28;20558;-70
2021/08/14 01:55:24;;;;;;;8.87;5.00;;;15.70;99.90;;;;;;5032175;28;20161;-70
2021/08/14 01:57:50;;;;;;;8.10;5.20;;;15.70;99.90;;;;;;5032316;28;20162;-70
2021/08/14 02:00:16;;;;;;;6.57;4.50;;;15.70;99.90;;;;;;5031804;28;20192;-70
2021/08/14 02:02:42;;;;;;;9.23;5.30;;;15.70;99.90;;;;;;5031938;28;20448;-70
2021/08/14 02:05:08;;;;;;;7.77;4.93;;;15.60;99.90;;;;;;5032050;28;20415;-70
2021/08/14 02:07:33;;;;;;;5.93;4.77;;;15.60;99.90;;;;;;5032251;28;20248;-70
2021/08/14 02:09:59;;;;;;;10.30;5.30;;;15.60;99.90;;;;;;5032004;28;20844;-70
2021/08/14 02:12:25;;;;;;;7.67;5.50;;;15.60;99.90;;;;;;5031850;28;20728;-70
2021/08/14 02:14:50;;;;;;;8.67;6.30;;;15.60;99.90;;;;;;5031897;28;20211;-70
2021/08/14 02:17:16;;;;;;;7.43;5.60;;;15.60;99.90;;;;;;5026850;28;20190;-70
2021/08/14 02:19:41;;;;;;;7.07;4.80;;;15.50;99.90;;;;;;5031615;28;20181;-70
2021/08/14 02:22:07;;;;;;;7.17;5.83;;;15.50;99.90;;;;;;5031858;28;20169;-70
2021/08/14 02:24:34;;;;;;;7.50;5.17;;;15.50;99.90;;;;;;5031891;28;20164;-70
2021/08/14 02:27:00;;;;;;;6.77;5.60;;;15.50;99.90;;;;;;5031874;28;20160;-70
2021/08/14 02:29:26;;;;;;;8.17;5.77;;;15.40;99.90;;;;;;5031930;28;20918;-70
2021/08/14 02:31:51;;;;;;;9.67;5.67;;;15.50;99.90;;;;;;5031596;28;20543;-70
2021/08/14 02:34:17;;;;;;;8.60;5.83;;;15.50;99.90;;;;;;5032204;28;20169;-70
2021/08/14 02:36:43;;;;;;;10.60;5.73;;;15.40;99.90;;;;;;5032192;28;20228;-71
2021/08/14 02:39:08;;;;;;;7.17;5.57;;;15.40;99.90;;;;;;5032371;28;20669;-70
2021/08/14 02:41:34;;;;;;;7.33;5.53;;;15.40;99.90;;;;;;5035372;28;20169;-70
2021/08/14 02:43:59;;;;;;;8.10;6.10;;;15.40;99.90;;;;;;5035545;28;20174;-70
2021/08/14 02:46:25;;;;;;;12.37;6.80;;;15.40;99.90;;;;;;5035264;28;20184;-70
2021/08/14 02:48:50;;;;;;;8.63;6.57;;;15.40;99.90;;;;;;5034967;28;20173;-70
2021/08/14 02:51:16;;;;;;;7.30;5.97;;;15.40;99.90;;;;;;5035167;28;20169;-70
2021/08/14 02:53:42;;;;;;;7.33;5.50;;;15.40;99.90;;;;;;5034934;28;20177;-70
2021/08/14 02:56:08;;;;;;;10.90;5.80;;;15.40;99.90;;;;;;5035205;28;20219;-70
2021/08/14 02:58:33;;;;;;;9.87;5.93;;;15.40;99.90;;;;;;5034749;28;20724;-70
2021/08/14 03:00:59;;;;;;;7.00;5.70;;;15.40;99.90;;;;;;5034961;28;20392;-70
2021/08/14 03:03:24;;;;;;;7.50;4.73;;;15.40;99.90;;;;;;5035068;28;20184;-70
2021/08/14 03:05:50;;;;;;;7.57;5.17;;;15.40;99.90;;;;;;5034970;28;20185;-70
2021/08/14 03:08:15;;;;;;;7.03;5.53;;;15.30;99.90;;;;;;5034712;28;20248;-70
2021/08/14 03:10:42;;;;;;;8.30;4.50;;;15.30;99.90;;;;;;5034676;28;20177;-70
2021/08/14 03:13:08;;;;;;;7.73;5.60;;;15.30;99.90;;;;;;5034756;28;20545;-70
2021/08/14 03:15:34;;;;;;;6.00;5.23;;;15.30;99.90;;;;;;5034946;28;20411;-70
2021/08/14 03:18:00;;;;;;;7.07;5.03;;;15.30;99.90;;;;;;5022530;28;20421;-70
2021/08/14 03:20:27;;;;;;;8.13;5.17;;;15.30;99.90;;;;;;5015064;28;20158;-70
2021/08/14 03:22:52;;;;;;;8.90;4.60;;;15.30;99.90;;;;;;5014825;28;20678;-70
2021/08/14 03:25:18;;;;;;;7.73;5.30;;;15.30;99.90;;;;;;5015790;28;20405;-70
2021/08/14 03:27:43;;;;;;;9.50;6.13;;;15.20;99.90;;;;;;5034348;28;20187;-70
2021/08/14 03:30:10;;;;;;;6.47;4.80;;;15.30;99.90;;;;;;5034504;28;20193;-70
2021/08/14 03:32:35;;;;;;;10.80;6.13;;;15.20;99.90;;;;;;5034230;28;20271;-70
2021/08/14 03:35:01;;;;;;;9.17;6.20;;;15.20;99.90;;;;;;5034626;28;20396;-70
2021/08/14 03:37:26;;;;;;;8.13;4.90;;;15.20;99.90;;;;;;5034313;28;20502;-70
2021/08/14 03:39:52;;;;;;;6.47;4.57;;;15.20;99.90;;;;;;5034259;28;20228;-70
2021/08/14 03:42:17;;;;;;;9.40;5.53;;;15.20;99.90;;;;;;5033973;28;20161;-70
2021/08/14 03:44:43;;;;;;;7.90;4.83;;;15.20;99.90;;;;;;5034274;28;20268;-70
2021/08/14 03:47:08;;;;;;;9.30;5.63;;;15.20;99.90;;;;;;5033856;28;20204;-70
2021/08/14 03:49:34;;;;;;;9.57;5.57;;;15.20;99.90;;;;;;5034329;28;20162;-70
2021/08/14 03:51:59;;;;;;;7.93;5.87;;;15.20;99.90;;;;;;5033995;28;20182;-70
2021/08/14 03:54:25;;;;;;;6.47;5.17;;;15.20;99.90;;;;;;5034030;28;20162;-70
2021/08/14 03:56:53;;;;;;;7.47;5.83;;;15.20;99.90;;;;;;5033988;28;20607;-70
2021/08/14 03:59:18;;;;;;;9.47;6.10;;;15.10;99.90;;;;;;5033529;28;20674;-70
2021/08/14 04:01:44;;;;;;;11.10;6.97;;;15.10;99.90;;;;;;5033705;28;20414;-70
2021/08/14 04:04:10;;;;;;;9.90;6.63;;;15.20;99.90;;;;;;5034661;28;20696;-70
2021/08/14 04:06:35;;;;;;;9.53;6.40;;;15.20;99.90;;;;;;5033959;28;20248;-70
2021/08/14 04:09:01;;;;;;;9.60;5.67;;;15.20;99.90;;;;;;5033813;28;20158;-70
2021/08/14 04:11:26;;;;;;;10.63;5.73;;;15.20;99.90;;;;;;5033511;28;20618;-70
2021/08/14 04:13:52;;;;;;;8.10;6.10;;;15.20;99.90;;;;;;5033625;28;20154;-70
2021/08/14 04:16:17;;;;;;;11.03;5.73;;;15.20;99.90;;;;;;5033423;28;20157;-70
2021/08/14 04:18:43;;;;;;;10.03;6.10;;;15.20;99.90;;;;;;5034151;28;20204;-70
2021/08/14 04:21:08;;;;;;;8.63;5.47;;;15.20;99.90;;;;;;5033480;28;20655;-70
2021/08/14 04:23:34;;;;;;;8.13;5.80;;;15.20;99.90;;;;;;5033613;28;20638;-70
2021/08/14 04:26:00;;;;;;;10.37;6.53;;;15.20;99.90;;;;;;5033248;28;20192;-70
2021/08/14 04:28:25;;;;;;;9.60;6.57;;;15.10;99.90;;;;;;5033362;28;20587;-70
2021/08/14 04:30:51;;;;;;;7.97;5.10;;;15.20;99.90;;;;;;5033299;28;20180;-70
2021/08/14 04:33:16;;;;;;;8.73;5.30;;;15.20;99.90;;;;;;5033688;28;20232;-70
2021/08/14 04:35:42;;;;;;;13.50;6.03;;;15.20;99.90;;;;;;5033071;28;20216;-70
2021/08/14 04:38:08;;;;;;;6.00;4.93;;;15.20;99.90;;;;;;5033293;28;20169;-70
2021/08/14 04:40:33;;;;;;;8.33;5.80;;;15.10;99.90;;;;;;5033138;28;20153;-70
2021/08/14 04:42:59;;;;;;;8.70;5.30;;;15.20;99.90;;;;;;5033161;28;20530;-70
2021/08/14 04:45:24;;;;;;;7.77;5.20;;;15.20;99.90;;;;;;5033065;28;20681;-70
2021/08/14 04:47:51;;;;;;;8.87;6.10;;;15.20;99.90;;;;;;5033706;28;20729;-70
2021/08/14 04:50:17;;;;;;;8.70;5.70;;;15.20;99.90;;;;;;5032940;28;20173;-70
2021/08/14 04:52:42;;;;;;;7.70;6.10;;;15.20;99.90;;;;;;5032802;28;20459;-70
2021/08/14 04:55:09;;;;;;;7.47;5.60;;;15.20;99.90;;;;;;5032892;28;20156;-70
2021/08/14 04:57:35;;;;;;;10.83;5.60;;;15.20;99.90;;;;;;5032937;28;20150;-71
2021/08/14 05:00:00;;;;;;;7.60;4.97;;;15.20;99.90;;;;;;5032962;28;20427;-70
2021/08/14 05:02:26;;;;;;;7.50;5.40;;;15.10;99.90;;;;;;5019073;28;20231;-70
2021/08/14 05:04:51;;;;;;;8.40;5.73;;;15.20;99.90;;;;;;5033081;28;20158;-70
2021/08/14 05:07:17;;;;;;;9.63;5.57;;;15.20;99.90;;;;;;5027148;28;20627;-70
2021/08/14 05:09:43;;;;;;;7.00;6.13;;;15.20;99.90;;;;;;5032642;28;20720;-71
2021/08/14 05:12:09;;;;;;;8.50;5.97;;;15.20;99.90;;;;;;5032699;28;20193;-70
2021/08/14 05:14:35;;;;;;;7.60;5.90;;;15.20;99.90;;;;;;5033027;28;20391;-70
2021/08/14 05:17:01;;;;;;;8.93;5.93;;;15.30;99.90;;;;;;5033235;28;20396;-70
2021/08/14 05:19:26;;;;;;;8.30;6.27;;;15.20;99.90;;;;;;5032682;28;20178;-70
2021/08/14 05:21:52;;;;;;;8.73;6.70;;;15.30;99.90;;;;;;5032690;28;20399;-70
2021/08/14 05:24:18;;;;;;;9.33;6.23;;;15.30;99.90;;;;;;5032718;28;20158;-70
2021/08/14 05:26:43;;;;;;;8.97;5.80;;;15.30;99.90;;;;;;5032557;28;20177;-70
2021/08/14 05:29:09;;;;;;;10.70;5.10;;;15.40;99.90;;;;;;5032732;28;20215;-70
2021/08/14 05:31:35;;;;;;;7.77;5.90;;;15.40;99.90;;;;;;5033313;28;20189;-70
2021/08/14 05:34:02;;;;;;;8.47;5.90;;;15.40;99.90;;;;;;5032435;28;20412;-70
2021/08/14 05:36:29;;;;;;;8.50;5.80;;;15.50;99.90;;;;;;5032522;28;20424;-71
2021/08/14 05:38:54;;;;;;;8.90;5.50;;;15.50;99.90;;;;;;5032387;28;20450;-70
2021/08/14 05:41:20;;;;;;;7.70;6.20;;;15.60;99.90;;;;;;5032288;28;20846;-70
2021/08/14 05:43:46;;;;;;;9.47;6.60;;;15.60;99.90;;;;;;5032755;28;20693;-70
2021/08/14 05:46:11;;;;;;;8.27;5.80;;;15.70;99.90;;;;;;5032629;28;20444;-70
2021/08/14 05:48:37;;;;;;;6.73;6.00;;;15.70;99.90;;;;;;5032358;28;20188;-70
2021/08/14 05:51:03;;;;;;;11.87;6.33;;;15.80;99.90;;;;;;5032433;28;20549;-70
2021/08/14 05:53:29;;;;;;;7.60;5.73;;;15.80;99.90;;;;;;5032300;28;20272;-70
2021/08/14 05:55:54;;;;;;;8.50;7.33;;;15.90;99.90;;;;;;5026093;28;20500;-70
2021/08/14 05:58:20;;;;;;;11.83;7.07;;;15.90;99.90;;;;;;5014297;28;20253;-70
2021/08/14 06:00:46;;;;;;;11.10;6.00;;;16.00;99.90;;;;;;5032823;28;20621;-70
2021/08/14 06:03:11;;;;;;;9.13;6.20;;;16.10;99.90;;;;;;5032347;28;20169;-70
2021/08/14 06:05:37;;;;;;;8.40;5.97;;;16.10;99.90;;;;;;5032292;28;20526;-70
2021/08/14 06:08:03;;;;;;;8.83;5.23;;;16.20;99.90;;;;;;5032156;28;20190;-70
2021/08/14 06:10:28;;;;;;;8.93;6.70;;;16.30;99.90;;;;;;5032096;28;20237;-70
2021/08/14 06:12:54;;;;;;;10.07;6.10;;;16.30;99.90;;;;;;5032770;28;20436;-70
2021/08/14 06:15:19;;;;;;;8.83;6.60;;;16.40;99.90;;;;;;5034654;28;20168;-70
2021/08/14 06:17:45;;;;;;;10.37;5.97;;;16.50;99.90;;;;;;5035914;28;20265;-70
2021/08/14 06:20:12;;;;;;;9.50;5.43;;;16.60;99.90;;;;;;5027586;28;20177;-70
2021/08/14 06:22:39;;;;;;;8.43;5.80;;;16.60;99.90;;;;;;5016074;28;20674;-70
2021/08/14 06:25:06;;;;;;;8.17;6.40;;;16.70;99.90;;;;;;5016397;28;20441;-70
2021/08/14 06:27:31;;;;;;;13.63;6.33;;;16.80;99.90;;;;;;5016613;28;20390;-70
2021/08/14 06:29:57;;;;;;;7.03;4.50;;;16.90;99.90;;;;;;5016339;28;20481;-70
2021/08/14 06:32:22;;;;;;;8.20;4.70;;;17.00;99.90;;;;;;5017579;28;20241;-70
2021/08/14 06:34:48;;;;;;;7.27;4.83;;;17.10;99.90;;;;;;5035411;28;20177;-70
2021/08/14 06:37:13;;;;;;;8.00;5.00;;;17.20;99.90;;;;;;5035451;28;20577;-70
2021/08/14 06:39:39;;;;;;;11.03;5.80;;;17.20;99.90;;;;;;5035796;28;20155;-70
2021/08/14 06:42:05;;;;;;;9.60;4.70;;;17.30;99.90;;;;;;5035847;28;20586;-70
2021/08/14 06:44:33;;;;;;;8.70;4.83;;;17.40;99.90;;;;;;5035833;28;20636;-70
2021/08/14 06:46:58;;;;;;;5.73;4.50;;;17.40;99.90;;;;;;5035620;28;20831;-70
2021/08/14 06:49:24;;;;;;;9.00;5.10;;;17.50;99.90;;;;;;5035208;28;20459;-70
2021/08/14 06:51:49;;;;;;;8.63;4.97;;;17.60;99.90;;;;;;5034894;28;20233;-70
2021/08/14 06:54:15;;;;;;;8.30;4.93;;;17.70;99.90;;;;;;5036206;28;20261;-70
2021/08/14 06:56:40;;;;;;;7.63;5.00;;;17.70;99.90;;;;;;5022858;28;20176;-70
2021/08/14 06:59:06;;;;;;;10.13;5.20;;;17.80;99.90;;;;;;5015582;28;20559;-70
2021/08/14 07:01:31;;;;;;;9.00;4.93;;;17.90;99.90;;;;;;5015222;28;20191;-70
2021/08/14 07:03:57;;;;;;;6.50;4.43;;;17.90;99.90;;;;;;5015314;28;20155;-70
2021/08/14 07:06:25;;;;;;;7.50;3.93;;;18.00;99.90;;;;;;5017000;28;20646;-70
2021/08/14 07:08:51;;;;;;;5.83;4.70;;;18.10;99.90;;;;;;5035925;28;20177;-70
2021/08/14 07:11:20;;;;;;;8.53;4.73;;;18.20;99.90;;;;;;5035845;28;20880;-70
2021/08/14 07:13:46;;;;;;;6.90;3.80;;;18.30;99.90;;;;;;5034809;28;20452;-70
2021/08/14 07:16:12;;;;;;;4.23;3.47;;;18.30;99.90;;;;;;5034936;28;20427;-70
2021/08/14 07:18:38;;;;;;;5.03;3.50;;;18.40;99.90;;;;;;5034944;28;20969;-70
2021/08/14 07:21:04;;;;;;;6.07;3.47;;;18.50;99.90;;;;;;5019008;28;20299;-70
2021/08/14 07:23:29;;;;;;;7.83;3.40;;;18.50;99.90;;;;;;5018494;28;20179;-70
2021/08/14 07:25:55;;;;;;;6.60;3.37;;;18.60;99.90;;;;;;5034727;28;20418;-70
2021/08/14 07:28:21;;;;;;;6.43;3.67;;;18.70;99.90;;;;;;5034733;28;20156;-70
2021/08/14 07:30:47;;;;;;;4.83;3.03;;;18.80;99.90;;;;;;5034464;28;20190;-70
2021/08/14 07:33:14;;;;;;;7.87;3.60;;;18.90;99.90;;;;;;5033054;28;20188;-70
2021/08/14 07:35:40;;;;;;;5.03;2.87;;;19.00;99.90;;;;;;5034332;28;20451;-70
2021/08/14 07:38:06;;;;;;;4.40;2.47;;;19.10;99.90;;;;;;5034431;28;20846;-70
2021/08/14 07:40:31;;;;;;;5.47;2.70;;;19.20;99.90;;;;;;5034670;28;20178;-71
2021/08/14 07:42:58;;;;;;;6.57;3.30;;;19.30;99.90;;;;;;5034518;28;20229;-70
2021/08/14 07:45:24;;;;;;;3.70;2.53;;;19.60;99.90;;;;;;5034265;28;20165;-70
2021/08/14 07:47:51;;;;;;;4.13;3.37;;;19.90;99.90;;;;;;5034252;28;20424;-70
2021/08/14 07:50:18;;;;;;;4.43;2.60;;;20.70;99.90;;;;;;5034387;28;20443;-70
2021/08/14 07:52:44;;;;;;;7.00;2.70;;;22.00;99.90;;;;;;5034164;28;20528;-70
2021/08/14 07:55:11;;;;;;;3.60;2.27;;;23.50;99.90;;;;;;5034625;28;20403;-70
2021/08/14 07:57:39;;;;;;;9.00;2.80;;;24.80;99.90;;;;;;5018118;28;20227;-70
2021/08/14 08:00:06;;;;;;;5.93;2.17;;;26.00;98.10;;;;;;5033844;28;20432;-71
2021/08/14 08:02:31;;;;;;;5.20;2.53;;;27.10;95.70;;;;;;5034004;28;20819;-70
2021/08/14 08:04:57;;;;;;;4.93;2.07;;;27.90;93.10;;;;;;5034144;28;20447;-71
2021/08/14 08:07:22;;;;;;;5.83;2.57;;;28.70;87.60;;;;;;5033806;28;20174;-71
2021/08/14 08:09:48;;;;;;;5.33;2.00;;;29.30;84.80;;;;;;5034086;28;20161;-71
2021/08/14 08:12:13;;;;;;;3.20;2.10;;;29.80;80.90;;;;;;5033711;28;20199;-71
2021/08/14 08:14:39;;;;;;;7.83;2.70;;;30.40;76.40;;;;;;5033679;28;20188;-71
2021/08/14 08:17:04;;;;;;;5.80;2.40;;;30.80;71.70;;;;;;5033640;28;20177;-71
2021/08/14 08:19:30;;;;;;;12.37;2.47;;;31.00;69.80;;;;;;5033747;28;20149;-71
2021/08/14 08:21:55;;;;;;;7.00;3.73;;;31.10;66.40;;;;;;5033501;28;20169;-72
2021/08/14 08:24:21;;;;;;;6.60;2.43;;;31.40;62.70;;;;;;5033828;28;20615;-72
2021/08/14 08:26:46;;;;;;;4.67;2.70;;;31.50;62.10;;;;;;5033639;28;20169;-72
2021/08/14 08:29:12;;;;;;;3.20;2.00;;;31.90;60.40;;;;;;5033829;28;20180;-72
2021/08/14 08:31:37;;;;;;;2.70;2.00;;;32.40;60.70;;;;;;5033047;28;20275;-72
2021/08/14 08:34:03;;;;;;;2.70;1.87;;;33.10;58.40;;;;;;5033270;28;20181;-72
2021/08/14 08:36:29;;;;;;;4.40;2.27;;;33.90;57.30;;;;;;5032865;28;20170;-72
2021/08/14 08:38:54;;;;;;;3.53;2.10;;;34.80;53.10;;;;;;5033093;28;20169;-73
2021/08/14 08:41:20;;;;;;;4.77;2.17;;;35.40;50.60;;;;;;5033050;28;20169;-73
2021/08/14 08:43:46;;;;;;;3.37;2.33;;;35.40;50.00;;;;;;5033267;28;20157;-72
2021/08/14 08:46:11;;;;;;;2.83;2.50;;;34.60;49.90;;;;;;5033265;28;20153;-73
2021/08/14 08:48:43;;;;;;;4.40;1.80;;;33.60;52.70;;;;;;5033049;28;20174;-72
2021/08/14 08:51:10;;;;;;;3.33;2.53;;;32.40;54.20;;;;;;5033402;28;20524;-72
2021/08/14 08:53:38;;;;;;;7.27;2.60;;;31.30;55.70;;;;;;5032973;28;20979;-72
2021/08/14 08:56:04;;;;;;;3.20;2.43;;;30.30;57.50;;;;;;5025778;28;20511;-72
2021/08/14 08:58:32;;;;;;;3.17;2.17;;;29.40;59.20;;;;;;5013095;28;20428;-72
2021/08/14 09:00:58;;;;;;;5.23;2.47;;;28.60;60.70;;;;;;5013184;28;20393;-72
2021/08/14 09:03:27;;;;;;;8.37;3.67;;;28.00;63.40;;;;;;5013229;28;20397;-72
2021/08/14 09:05:54;;;;;;;4.13;2.00;;;27.60;66.00;;;;;;5019126;28;20190;-72
2021/08/14 09:08:20;;;;;;;4.03;2.03;;;27.50;67.00;;;;;;5033247;28;20442;-72
2021/08/14 09:10:46;;;;;;;3.77;1.70;;;27.80;66.10;;;;;;5032541;28;20414;-72
2021/08/14 09:13:17;;;;;;;2.83;1.90;;;28.50;64.70;;;;;;5032787;28;20570;-72
2021/08/14 09:15:43;;;;;;;3.60;1.80;;;29.30;62.30;;;;;;5032847;28;20392;-72
2021/08/14 09:18:12;;;;;;;2.07;1.47;;;30.10;60.30;;;;;;5032668;28;20397;-72
2021/08/14 09:20:54;;;;;;;1.90;1.70;;;31.00;58.50;;;;;;5032650;28;20396;-72
2021/08/14 09:23:22;;;;;;;3.70;2.60;;;31.70;58.10;;;;;;5027493;28;20502;-72
2021/08/14 09:28:34;;;;;;;5.13;2.27;;;32.10;53.20;;;;;;5069923;28;20641;-71
2021/08/14 09:31:04;;;;;;;3.63;2.13;;;32.70;55.50;;;;;;5069867;28;20385;-71
2021/08/14 09:33:32;;;;;;;4.30;2.70;;;32.90;50.50;;;;;;5069729;28;20378;-71
2021/08/14 09:36:01;;;;;;;1.80;1.67;;;32.90;52.60;;;;;;5069897;28;20441;-71
2021/08/14 09:38:49;;;;;;;7.40;3.00;;;32.90;50.70;;;;;;5069706;28;20438;-72
2021/08/14 09:41:16;;;;;;;4.60;1.80;;;32.70;52.00;;;;;;5052487;28;20420;-71
2021/08/14 09:43:43;;;;;;;2.67;2.00;;;32.60;53.70;;;;;;5049750;28;20974;-71
2021/08/14 09:46:09;;;;;;;5.20;2.03;;;32.60;54.20;;;;;;5049469;28;20395;-71
2021/08/14 09:48:36;;;;;;;4.73;1.90;;;32.50;52.90;;;;;;5049558;28;20391;-71
2021/08/14 09:51:02;;;;;;;3.63;2.10;;;32.30;52.00;;;;;;5049468;28;20502;-71
2021/08/14 09:53:29;;;;;;;3.03;1.90;;;32.40;51.40;;;;;;5049384;28;20835;-71
2021/08/14 09:56:12;;;;;;;4.87;1.97;;;32.50;53.50;;;;;;5049308;28;20638;-71
2021/08/14 09:58:39;;;;;;;4.60;2.00;;;32.80;51.00;;;;;;5050267;28;20798;-71
2021/08/14 10:01:07;;;;;;;2.90;1.87;;;33.00;49.90;;;;;;5049277;28;20402;-71
2021/08/14 10:03:33;;;;;;;1.70;1.60;;;33.10;49.20;;;;;;5049415;28;20423;-71
2021/08/14 10:06:01;;;;;;;3.13;1.70;;;33.10;49.60;;;;;;5049233;28;20453;-73
2021/08/14 10:08:28;;;;;;;2.10;1.30;;;32.70;50.30;;;;;;5049122;28;20411;-73
2021/08/14 10:10:55;;;;;;;2.87;1.73;;;32.30;51.00;;;;;;5049081;28;20439;-73
2021/08/14 10:13:22;;;;;;;5.07;2.20;;;32.00;50.00;;;;;;5049600;28;20395;-73
2021/08/14 10:15:48;;;;;;;4.10;2.00;;;31.50;50.80;;;;;;5049717;28;20434;-73
2021/08/14 10:18:17;;;;;;;5.73;2.33;;;31.10;51.80;;;;;;5049244;28;20399;-73
2021/08/14 10:20:43;;;;;;;3.70;1.67;;;30.80;52.60;;;;;;5048864;28;20888;-73
2021/08/14 10:23:11;;;;;;;3.30;1.67;;;30.40;52.30;;;;;;5062003;28;20481;-73
2021/08/14 10:25:41;;;;;;;5.47;2.20;;;30.00;53.60;;;;;;5068672;28;20406;-73
2021/08/14 10:28:07;;;;;;;5.90;1.87;;;29.60;54.30;;;;;;5068593;28;20464;-73
2021/08/14 10:30:50;;;;;;;4.43;1.77;;;29.30;54.10;;;;;;5065781;28;20406;-73
2021/08/14 10:33:33;;;;;;;4.80;3.07;;;28.80;54.00;;;;;;5049116;28;20383;-73
2021/08/14 10:36:20;;;;;;;3.57;1.50;;;28.50;54.40;;;;;;5048525;28;20907;-73
2021/08/14 10:38:47;;;;;;;3.70;1.43;;;28.20;54.70;;;;;;5039650;28;20809;-73
2021/08/14 10:41:13;;;;;;;3.53;1.70;;;27.90;55.10;;;;;;5035420;28;20776;-73
2021/08/14 10:49:12;;;;;;;2.50;1.97;;;27.60;54.00;;;;;;5054940;28;20525;-73
2021/08/14 10:57:08;;;;;;;2.03;1.77;;;27.00;55.40;;;;;;5114661;27;20521;-77
2021/08/14 11:04:57;;;;;;;5.00;1.80;;;26.40;59.70;;;;;;5125418;27;21173;-72
2021/08/14 11:18:02;;;;;;;3.87;1.83;;;25.40;63.40;;;;;;5110586;27;20535;-73
2021/08/14 11:20:37;;;;;;;4.20;2.03;;;25.20;60.20;;;;;;5110312;28;20388;-72
2021/08/14 11:23:24;;;;;;;1.87;1.00;;;25.10;63.10;;;;;;5096208;28;20491;-72
2021/08/14 11:25:50;;;;;;;2.30;2.00;;;25.00;64.40;;;;;;5074794;28;20398;-72
2021/08/14 11:28:21;;;;;;;3.50;1.87;;;24.90;63.60;;;;;;5089948;28;20818;-72
2021/08/14 11:30:57;;;;;;;4.50;1.80;;;24.80;64.40;;;;;;5090753;28;20385;-73
2021/08/14 11:33:24;;;;;;;2.77;1.77;;;24.70;65.20;;;;;;5089774;28;20447;-72
2021/08/14 11:36:02;;;;;;;2.80;1.90;;;24.60;69.50;;;;;;5089922;28;20531;-72
2021/08/14 11:38:33;;;;;;;3.20;2.50;;;24.50;70.40;;;;;;5091586;28;20759;-72
2021/08/14 11:41:01;;;;;;;3.40;2.17;;;24.40;71.50;;;;;;5109065;28;20503;-72
2021/08/14 11:43:36;;;;;;;5.47;1.97;;;24.40;70.00;;;;;;5110080;28;20392;-72
2021/08/14 11:46:04;;;;;;;2.23;1.57;;;24.30;70.30;;;;;;5110769;28;20524;-73
2021/08/14 11:48:38;;;;;;;4.63;3.00;;;24.20;67.70;;;;;;5109909;28;20412;-72
2021/08/14 11:51:04;;;;;;;5.90;2.53;;;24.20;70.20;;;;;;5109799;28;20412;-72
2021/08/14 11:53:30;;;;;;;3.50;2.00;;;24.10;71.00;;;;;;5105990;28;20421;-72
2021/08/14 11:56:13;;;;;;;3.10;1.83;;;24.10;68.60;;;;;;5090152;28;20521;-72
2021/08/14 11:58:40;;;;;;;2.17;1.93;;;24.00;67.70;;;;;;5089671;28;20194;-72
2021/08/14 12:01:06;;;;;;;3.50;1.77;;;24.00;71.50;;;;;;5089314;28;20551;-72
2021/08/14 12:03:32;;;;;;;2.73;1.40;;;24.00;72.90;;;;;;5089263;28;20483;-73
2021/08/14 12:06:08;;;;;;;2.97;2.23;;;23.90;69.50;;;;;;5089021;28;21037;-72
2021/08/14 12:08:36;;;;;;;1.80;1.63;;;23.90;69.20;;;;;;5089375;28;20417;-72
2021/08/14 12:11:07;;;;;;;3.53;2.50;;;23.90;72.80;;;;;;5089016;28;20497;-72
2021/08/14 12:13:34;;;;;;;2.07;1.53;;;23.80;70.20;;;;;;5090875;28;20454;-72
2021/08/14 12:16:17;;;;;;;5.03;2.00;;;23.90;73.20;;;;;;5088954;28;20452;-72
2021/08/14 12:18:45;;;;;;;2.50;1.50;;;23.80;72.60;;;;;;5088937;28;20393;-72
2021/08/14 12:21:12;;;;;;;3.00;1.80;;;23.80;72.80;;;;;;5088796;28;20395;-72
2021/08/14 12:23:39;;;;;;;3.40;1.60;;;23.80;72.00;;;;;;5088824;28;20560;-72
2021/08/14 12:26:10;;;;;;;5.07;1.90;;;23.70;72.20;;;;;;5108126;28;20404;-72
2021/08/14 12:28:38;;;;;;;2.27;1.60;;;23.70;75.30;;;;;;5100909;28;20393;-72
2021/08/14 12:31:21;;;;;;;1.80;1.40;;;23.70;75.10;;;;;;5080400;28;20436;-72
2021/08/14 12:33:51;;;;;;;3.87;1.80;;;23.60;76.90;;;;;;5075155;28;20428;-72
2021/08/14 12:36:38;;;;;;;2.50;1.50;;;23.60;77.80;;;;;;5074996;28;20514;-72
2021/08/14 12:39:05;;;;;;;3.93;2.53;;;23.50;73.30;;;;;;5087945;28;20401;-72
2021/08/14 12:41:42;;;;;;;2.83;1.67;;;23.50;75.30;;;;;;5075549;28;20887;-72
2021/08/14 12:44:10;;;;;;;1.43;1.33;;;23.40;77.70;;;;;;5075536;28;20401;-72
2021/08/14 12:46:36;;;;;;;5.20;2.30;;;23.40;77.90;;;;;;5075883;28;20477;-72
2021/08/14 12:54:52;;;;;;;2.60;1.83;;;23.40;78.70;;;;;;5057769;28;20528;-72
2021/08/14 12:57:18;;;;;;;2.70;2.30;;;23.30;78.00;;;;;;5050442;28;20415;-72
2021/08/14 12:59:44;;;;;;;2.20;1.73;;;23.30;79.50;;;;;;5049897;28;20425;-72
2021/08/14 13:02:09;;;;;;;2.50;1.67;;;23.30;76.80;;;;;;5049723;28;20495;-72
2021/08/14 13:04:36;;;;;;;2.53;2.10;;;23.30;81.50;;;;;;5039209;28;20177;-72
2021/08/14 13:07:03;;;;;;;1.67;1.40;;;23.20;85.20;;;;;;5029782;28;20236;-72
2021/08/14 13:09:28;;;;;;;2.90;2.40;;;23.20;83.10;;;;;;5029597;28;20410;-72
2021/08/14 13:11:57;;;;;;;1.97;1.67;;;23.20;83.80;;;;;;5030653;28;20387;-72
2021/08/14 13:14:23;;;;;;;3.73;1.80;;;23.10;78.90;;;;;;5029821;28;20192;-72
2021/08/14 13:16:50;;;;;;;2.77;1.83;;;23.10;84.50;;;;;;5029742;28;20392;-72
2021/08/14 13:19:15;;;;;;;6.23;2.37;;;23.10;85.70;;;;;;5029573;28;20389;-72